sensor_id;sensor_type;location;lat;lon;timestamp;P1;durP1;ratioP1;P2;durP2;ratioP2
62679;SDS011;68213;40.528;44.712;2023-03-01T00:00:38;18.58;;;8.02;;
62679;SDS011;68213;40.528;44.712;2023-03-01T00:01:39;19.98;;;6.80;;
62679;SDS011;68213;40.528;44.712;2023-03-01T00:02:40;23.75;;;7.07;;
62679;SDS011;68213;40.528;44.712;2023-03-01T00:03:41;17.50;;;7.43;;
62679;SDS011;68213;40.528;44.712;2023-03-01T00:04:42;18.25;;;7.78;;
62679;SDS011;68213;40.528;44.712;2023-03-01T00:05:47;23.25;;;7.90;;
62679;SDS011;68213;40.528;44.712;2023-03-01T00:06:47;25.63;;;8.90;;
62679;SDS011;68213;40.528;44.712;2023-03-01T00:07:48;19.48;;;7.57;;
62679;SDS011;68213;40.528;44.712;2023-03-01T00:08:53;17.88;;;8.15;;
62679;SDS011;68213;40.528;44.712;2023-03-01T00:09:54;20.77;;;7.88;;
62679;SDS011;68213;40.528;44.712;2023-03-01T00:12:05;15.35;;;6.90;;
62679;SDS011;68213;40.528;44.712;2023-03-01T00:13:06;19.63;;;8.90;;
62679;SDS011;68213;40.528;44.712;2023-03-01T00:14:07;18.88;;;8.48;;
62679;SDS011;68213;40.528;44.712;2023-03-01T00:15:08;18.80;;;9.13;;
62679;SDS011;68213;40.528;44.712;2023-03-01T00:16:10;17.35;;;7.55;;
62679;SDS011;68213;40.528;44.712;2023-03-01T00:17:23;18.90;;;9.35;;
62679;SDS011;68213;40.528;44.712;2023-03-01T00:18:24;20.33;;;9.88;;
62679;SDS011;68213;40.528;44.712;2023-03-01T00:19:25;18.05;;;7.93;;
62679;SDS011;68213;40.528;44.712;2023-03-01T00:20:25;17.92;;;7.93;;
62679;SDS011;68213;40.528;44.712;2023-03-01T00:21:26;19.88;;;8.18;;
62679;SDS011;68213;40.528;44.712;2023-03-01T00:22:27;19.92;;;7.25;;
62679;SDS011;68213;40.528;44.712;2023-03-01T00:23:28;18.67;;;7.53;;
62679;SDS011;68213;40.528;44.712;2023-03-01T00:24:29;18.50;;;7.80;;
62679;SDS011;68213;40.528;44.712;2023-03-01T00:25:29;21.05;;;7.38;;
62679;SDS011;68213;40.528;44.712;2023-03-01T00:26:30;20.50;;;7.75;;
62679;SDS011;68213;40.528;44.712;2023-03-01T00:27:31;18.05;;;9.20;;
62679;SDS011;68213;40.528;44.712;2023-03-01T00:28:31;20.60;;;9.50;;
62679;SDS011;68213;40.528;44.712;2023-03-01T00:29:32;17.48;;;9.80;;
62679;SDS011;68213;40.528;44.712;2023-03-01T00:30:33;19.92;;;9.93;;
62679;SDS011;68213;40.528;44.712;2023-03-01T00:31:34;20.50;;;10.02;;
62679;SDS011;68213;40.528;44.712;2023-03-01T00:32:35;21.40;;;9.88;;
62679;SDS011;68213;40.528;44.712;2023-03-01T00:33:36;20.00;;;10.68;;
62679;SDS011;68213;40.528;44.712;2023-03-01T00:34:36;24.00;;;9.45;;
62679;SDS011;68213;40.528;44.712;2023-03-01T00:35:37;24.10;;;9.77;;
62679;SDS011;68213;40.528;44.712;2023-03-01T00:36:38;19.77;;;9.65;;
62679;SDS011;68213;40.528;44.712;2023-03-01T00:37:39;17.80;;;9.60;;
62679;SDS011;68213;40.528;44.712;2023-03-01T00:38:44;16.10;;;8.80;;
62679;SDS011;68213;40.528;44.712;2023-03-01T00:39:45;20.20;;;9.55;;
62679;SDS011;68213;40.528;44.712;2023-03-01T00:40:46;23.10;;;9.63;;
62679;SDS011;68213;40.528;44.712;2023-03-01T00:41:47;20.15;;;8.77;;
62679;SDS011;68213;40.528;44.712;2023-03-01T00:42:47;19.55;;;10.15;;
62679;SDS011;68213;40.528;44.712;2023-03-01T00:43:48;22.65;;;9.10;;
62679;SDS011;68213;40.528;44.712;2023-03-01T00:44:50;22.75;;;9.23;;
62679;SDS011;68213;40.528;44.712;2023-03-01T00:45:50;21.83;;;8.70;;
62679;SDS011;68213;40.528;44.712;2023-03-01T00:46:51;18.88;;;8.85;;
62679;SDS011;68213;40.528;44.712;2023-03-01T00:47:52;25.15;;;8.93;;
62679;SDS011;68213;40.528;44.712;2023-03-01T00:48:53;18.17;;;7.13;;
62679;SDS011;68213;40.528;44.712;2023-03-01T00:49:54;21.33;;;8.93;;
62679;SDS011;68213;40.528;44.712;2023-03-01T00:50:54;21.05;;;9.82;;
62679;SDS011;68213;40.528;44.712;2023-03-01T00:51:55;20.45;;;7.72;;
62679;SDS011;68213;40.528;44.712;2023-03-01T00:52:56;26.20;;;8.27;;
62679;SDS011;68213;40.528;44.712;2023-03-01T00:53:59;20.58;;;8.15;;
62679;SDS011;68213;40.528;44.712;2023-03-01T00:55:01;24.15;;;7.22;;
62679;SDS011;68213;40.528;44.712;2023-03-01T00:56:03;23.15;;;8.55;;
62679;SDS011;68213;40.528;44.712;2023-03-01T00:57:05;22.35;;;8.38;;
62679;SDS011;68213;40.528;44.712;2023-03-01T00:58:06;15.77;;;7.40;;
62679;SDS011;68213;40.528;44.712;2023-03-01T00:59:07;20.92;;;7.68;;
62679;SDS011;68213;40.528;44.712;2023-03-01T01:00:07;21.80;;;7.53;;
62679;SDS011;68213;40.528;44.712;2023-03-01T01:01:14;18.45;;;8.10;;
62679;SDS011;68213;40.528;44.712;2023-03-01T01:02:17;21.13;;;9.10;;
62679;SDS011;68213;40.528;44.712;2023-03-01T01:03:19;17.80;;;8.05;;
62679;SDS011;68213;40.528;44.712;2023-03-01T01:04:20;19.45;;;8.57;;
62679;SDS011;68213;40.528;44.712;2023-03-01T01:05:21;21.08;;;8.77;;
62679;SDS011;68213;40.528;44.712;2023-03-01T01:06:25;20.08;;;9.07;;
62679;SDS011;68213;40.528;44.712;2023-03-01T01:07:28;19.38;;;8.68;;
62679;SDS011;68213;40.528;44.712;2023-03-01T01:08:29;18.20;;;8.75;;
62679;SDS011;68213;40.528;44.712;2023-03-01T01:09:30;29.15;;;9.85;;
62679;SDS011;68213;40.528;44.712;2023-03-01T01:10:30;19.70;;;9.05;;
62679;SDS011;68213;40.528;44.712;2023-03-01T01:11:34;22.70;;;9.45;;
62679;SDS011;68213;40.528;44.712;2023-03-01T01:12:36;20.48;;;8.95;;
62679;SDS011;68213;40.528;44.712;2023-03-01T01:13:37;23.88;;;9.00;;
62679;SDS011;68213;40.528;44.712;2023-03-01T01:14:39;21.50;;;8.90;;
62679;SDS011;68213;40.528;44.712;2023-03-01T01:15:40;18.45;;;9.40;;
62679;SDS011;68213;40.528;44.712;2023-03-01T01:16:41;19.13;;;9.15;;
62679;SDS011;68213;40.528;44.712;2023-03-01T01:17:41;22.77;;;9.50;;
62679;SDS011;68213;40.528;44.712;2023-03-01T01:18:43;22.05;;;9.32;;
62679;SDS011;68213;40.528;44.712;2023-03-01T01:19:44;20.42;;;9.80;;
62679;SDS011;68213;40.528;44.712;2023-03-01T01:20:45;21.33;;;10.00;;
62679;SDS011;68213;40.528;44.712;2023-03-01T01:21:46;23.45;;;10.20;;
62679;SDS011;68213;40.528;44.712;2023-03-01T01:22:48;23.88;;;9.48;;
62679;SDS011;68213;40.528;44.712;2023-03-01T01:23:49;25.05;;;11.13;;
62679;SDS011;68213;40.528;44.712;2023-03-01T01:24:50;25.33;;;11.32;;
62679;SDS011;68213;40.528;44.712;2023-03-01T01:25:51;22.67;;;10.55;;
62679;SDS011;68213;40.528;44.712;2023-03-01T01:26:51;19.40;;;10.60;;
62679;SDS011;68213;40.528;44.712;2023-03-01T01:27:52;29.83;;;11.52;;
62679;SDS011;68213;40.528;44.712;2023-03-01T01:28:53;22.35;;;11.05;;
62679;SDS011;68213;40.528;44.712;2023-03-01T01:29:54;23.45;;;10.15;;
62679;SDS011;68213;40.528;44.712;2023-03-01T01:30:55;25.80;;;11.57;;
62679;SDS011;68213;40.528;44.712;2023-03-01T01:31:55;22.42;;;10.27;;
62679;SDS011;68213;40.528;44.712;2023-03-01T01:32:56;21.23;;;9.13;;
62679;SDS011;68213;40.528;44.712;2023-03-01T01:33:59;28.67;;;8.60;;
62679;SDS011;68213;40.528;44.712;2023-03-01T01:35:01;20.80;;;10.80;;
62679;SDS011;68213;40.528;44.712;2023-03-01T01:36:04;20.02;;;9.63;;
62679;SDS011;68213;40.528;44.712;2023-03-01T01:37:05;19.02;;;8.77;;
62679;SDS011;68213;40.528;44.712;2023-03-01T01:38:07;17.98;;;7.63;;
62679;SDS011;68213;40.528;44.712;2023-03-01T01:39:08;24.13;;;8.75;;
62679;SDS011;68213;40.528;44.712;2023-03-01T01:40:13;19.63;;;8.65;;
62679;SDS011;68213;40.528;44.712;2023-03-01T01:41:13;19.83;;;8.10;;
62679;SDS011;68213;40.528;44.712;2023-03-01T01:42:15;22.27;;;9.07;;
62679;SDS011;68213;40.528;44.712;2023-03-01T01:43:24;17.95;;;8.27;;
62679;SDS011;68213;40.528;44.712;2023-03-01T01:44:28;18.42;;;8.07;;
62679;SDS011;68213;40.528;44.712;2023-03-01T01:46:33;19.80;;;8.95;;
62679;SDS011;68213;40.528;44.712;2023-03-01T01:47:38;16.38;;;8.95;;
62679;SDS011;68213;40.528;44.712;2023-03-01T01:48:39;24.58;;;9.73;;
62679;SDS011;68213;40.528;44.712;2023-03-01T01:49:56;20.33;;;8.10;;
62679;SDS011;68213;40.528;44.712;2023-03-01T01:50:59;21.08;;;8.63;;
62679;SDS011;68213;40.528;44.712;2023-03-01T01:52:09;19.55;;;10.65;;
62679;SDS011;68213;40.528;44.712;2023-03-01T01:53:17;21.48;;;9.20;;
62679;SDS011;68213;40.528;44.712;2023-03-01T01:54:40;26.65;;;10.00;;
62679;SDS011;68213;40.528;44.712;2023-03-01T01:55:47;19.65;;;8.90;;
62679;SDS011;68213;40.528;44.712;2023-03-01T01:56:52;27.13;;;8.68;;
62679;SDS011;68213;40.528;44.712;2023-03-01T01:58:01;21.15;;;9.05;;
62679;SDS011;68213;40.528;44.712;2023-03-01T01:59:04;23.60;;;9.05;;
62679;SDS011;68213;40.528;44.712;2023-03-01T02:00:07;21.48;;;9.00;;
62679;SDS011;68213;40.528;44.712;2023-03-01T02:01:13;19.23;;;8.25;;
62679;SDS011;68213;40.528;44.712;2023-03-01T02:02:14;18.33;;;8.77;;
62679;SDS011;68213;40.528;44.712;2023-03-01T02:03:17;22.80;;;10.05;;
62679;SDS011;68213;40.528;44.712;2023-03-01T02:06:39;22.42;;;8.02;;
62679;SDS011;68213;40.528;44.712;2023-03-01T02:07:46;24.38;;;9.48;;
62679;SDS011;68213;40.528;44.712;2023-03-01T02:08:48;25.83;;;9.88;;
62679;SDS011;68213;40.528;44.712;2023-03-01T02:09:52;19.80;;;8.57;;
62679;SDS011;68213;40.528;44.712;2023-03-01T02:10:54;28.48;;;7.85;;
62679;SDS011;68213;40.528;44.712;2023-03-01T02:11:56;19.13;;;7.13;;
62679;SDS011;68213;40.528;44.712;2023-03-01T02:12:57;18.15;;;6.50;;
62679;SDS011;68213;40.528;44.712;2023-03-01T02:15:18;18.52;;;6.70;;
62679;SDS011;68213;40.528;44.712;2023-03-01T02:16:19;21.50;;;7.93;;
62679;SDS011;68213;40.528;44.712;2023-03-01T02:17:20;21.02;;;7.50;;
62679;SDS011;68213;40.528;44.712;2023-03-01T02:18:21;18.65;;;8.07;;
62679;SDS011;68213;40.528;44.712;2023-03-01T02:19:38;26.17;;;7.78;;
62679;SDS011;68213;40.528;44.712;2023-03-01T02:20:54;17.88;;;7.43;;
62679;SDS011;68213;40.528;44.712;2023-03-01T02:22:13;19.13;;;7.85;;
62679;SDS011;68213;40.528;44.712;2023-03-01T02:23:18;20.08;;;7.88;;
62679;SDS011;68213;40.528;44.712;2023-03-01T02:27:01;17.30;;;7.72;;
62679;SDS011;68213;40.528;44.712;2023-03-01T02:29:33;18.80;;;7.40;;
62679;SDS011;68213;40.528;44.712;2023-03-01T02:30:34;16.98;;;6.28;;
62679;SDS011;68213;40.528;44.712;2023-03-01T02:31:35;18.77;;;7.50;;
62679;SDS011;68213;40.528;44.712;2023-03-01T02:32:42;15.82;;;6.47;;
62679;SDS011;68213;40.528;44.712;2023-03-01T02:33:42;26.95;;;8.68;;
62679;SDS011;68213;40.528;44.712;2023-03-01T02:34:48;20.27;;;8.52;;
62679;SDS011;68213;40.528;44.712;2023-03-01T02:35:49;22.33;;;8.20;;
62679;SDS011;68213;40.528;44.712;2023-03-01T02:36:57;21.85;;;7.78;;
62679;SDS011;68213;40.528;44.712;2023-03-01T02:38:06;22.23;;;8.10;;
62679;SDS011;68213;40.528;44.712;2023-03-01T02:39:09;19.55;;;8.80;;
62679;SDS011;68213;40.528;44.712;2023-03-01T02:40:17;18.65;;;8.73;;
62679;SDS011;68213;40.528;44.712;2023-03-01T02:41:21;25.40;;;8.95;;
62679;SDS011;68213;40.528;44.712;2023-03-01T02:42:28;22.10;;;9.77;;
62679;SDS011;68213;40.528;44.712;2023-03-01T02:43:32;23.27;;;7.60;;
62679;SDS011;68213;40.528;44.712;2023-03-01T02:44:33;22.17;;;9.05;;
62679;SDS011;68213;40.528;44.712;2023-03-01T02:45:34;21.83;;;9.30;;
62679;SDS011;68213;40.528;44.712;2023-03-01T02:46:41;20.33;;;8.60;;
62679;SDS011;68213;40.528;44.712;2023-03-01T02:47:44;28.77;;;8.50;;
62679;SDS011;68213;40.528;44.712;2023-03-01T02:49:16;21.42;;;8.18;;
62679;SDS011;68213;40.528;44.712;2023-03-01T02:53:34;22.70;;;9.35;;
62679;SDS011;68213;40.528;44.712;2023-03-01T02:55:28;20.70;;;9.23;;
62679;SDS011;68213;40.528;44.712;2023-03-01T02:56:29;26.45;;;10.52;;
62679;SDS011;68213;40.528;44.712;2023-03-01T02:57:30;30.33;;;10.57;;
62679;SDS011;68213;40.528;44.712;2023-03-01T02:58:33;21.05;;;9.43;;
62679;SDS011;68213;40.528;44.712;2023-03-01T02:59:45;23.05;;;9.68;;
62679;SDS011;68213;40.528;44.712;2023-03-01T03:00:45;22.75;;;9.55;;
62679;SDS011;68213;40.528;44.712;2023-03-01T03:01:49;24.70;;;10.25;;
62679;SDS011;68213;40.528;44.712;2023-03-01T03:02:51;23.75;;;10.85;;
62679;SDS011;68213;40.528;44.712;2023-03-01T03:03:53;27.98;;;10.52;;
62679;SDS011;68213;40.528;44.712;2023-03-01T03:04:55;33.55;;;11.18;;
62679;SDS011;68213;40.528;44.712;2023-03-01T03:05:55;28.08;;;12.13;;
62679;SDS011;68213;40.528;44.712;2023-03-01T03:06:56;25.13;;;11.85;;
62679;SDS011;68213;40.528;44.712;2023-03-01T03:07:58;20.85;;;11.45;;
62679;SDS011;68213;40.528;44.712;2023-03-01T03:09:00;27.15;;;10.93;;
62679;SDS011;68213;40.528;44.712;2023-03-01T03:10:03;26.90;;;11.50;;
62679;SDS011;68213;40.528;44.712;2023-03-01T03:11:06;23.60;;;11.40;;
62679;SDS011;68213;40.528;44.712;2023-03-01T03:12:06;26.65;;;12.18;;
62679;SDS011;68213;40.528;44.712;2023-03-01T03:13:08;25.02;;;11.15;;
62679;SDS011;68213;40.528;44.712;2023-03-01T03:14:12;25.58;;;12.05;;
62679;SDS011;68213;40.528;44.712;2023-03-01T03:15:14;24.83;;;11.65;;
62679;SDS011;68213;40.528;44.712;2023-03-01T03:16:17;29.00;;;11.93;;
62679;SDS011;68213;40.528;44.712;2023-03-01T03:17:18;24.42;;;11.13;;
62679;SDS011;68213;40.528;44.712;2023-03-01T03:18:18;23.92;;;11.05;;
62679;SDS011;68213;40.528;44.712;2023-03-01T03:19:19;26.38;;;11.70;;
62679;SDS011;68213;40.528;44.712;2023-03-01T03:20:21;25.35;;;13.38;;
62679;SDS011;68213;40.528;44.712;2023-03-01T03:21:24;28.08;;;12.85;;
62679;SDS011;68213;40.528;44.712;2023-03-01T03:22:24;28.25;;;12.73;;
62679;SDS011;68213;40.528;44.712;2023-03-01T03:23:25;26.05;;;12.50;;
62679;SDS011;68213;40.528;44.712;2023-03-01T03:24:25;31.27;;;11.82;;
62679;SDS011;68213;40.528;44.712;2023-03-01T03:25:28;22.33;;;9.82;;
62679;SDS011;68213;40.528;44.712;2023-03-01T03:26:29;29.23;;;10.35;;
62679;SDS011;68213;40.528;44.712;2023-03-01T03:27:32;23.20;;;9.23;;
62679;SDS011;68213;40.528;44.712;2023-03-01T03:28:34;26.48;;;11.15;;
62679;SDS011;68213;40.528;44.712;2023-03-01T03:29:35;25.98;;;12.73;;
62679;SDS011;68213;40.528;44.712;2023-03-01T03:30:38;28.15;;;13.30;;
62679;SDS011;68213;40.528;44.712;2023-03-01T03:31:40;27.38;;;12.10;;
62679;SDS011;68213;40.528;44.712;2023-03-01T03:32:41;29.30;;;11.07;;
62679;SDS011;68213;40.528;44.712;2023-03-01T03:33:52;26.33;;;11.98;;
62679;SDS011;68213;40.528;44.712;2023-03-01T03:34:52;25.08;;;11.50;;
62679;SDS011;68213;40.528;44.712;2023-03-01T03:35:53;34.80;;;11.88;;
62679;SDS011;68213;40.528;44.712;2023-03-01T03:36:54;24.42;;;10.43;;
62679;SDS011;68213;40.528;44.712;2023-03-01T03:38:00;21.08;;;8.93;;
62679;SDS011;68213;40.528;44.712;2023-03-01T03:39:04;24.70;;;11.32;;
62679;SDS011;68213;40.528;44.712;2023-03-01T03:40:05;24.05;;;10.32;;
62679;SDS011;68213;40.528;44.712;2023-03-01T03:41:15;22.80;;;9.70;;
62679;SDS011;68213;40.528;44.712;2023-03-01T03:42:16;20.33;;;9.88;;
62679;SDS011;68213;40.528;44.712;2023-03-01T03:43:18;24.45;;;10.48;;
62679;SDS011;68213;40.528;44.712;2023-03-01T03:44:21;25.92;;;11.30;;
62679;SDS011;68213;40.528;44.712;2023-03-01T03:45:21;25.45;;;12.35;;
62679;SDS011;68213;40.528;44.712;2023-03-01T03:46:25;21.10;;;11.00;;
62679;SDS011;68213;40.528;44.712;2023-03-01T03:47:26;26.50;;;11.50;;
62679;SDS011;68213;40.528;44.712;2023-03-01T03:48:27;24.17;;;9.82;;
62679;SDS011;68213;40.528;44.712;2023-03-01T03:49:27;23.35;;;11.70;;
62679;SDS011;68213;40.528;44.712;2023-03-01T03:50:28;29.35;;;13.60;;
62679;SDS011;68213;40.528;44.712;2023-03-01T03:51:29;26.67;;;13.35;;
62679;SDS011;68213;40.528;44.712;2023-03-01T03:52:30;23.00;;;12.30;;
62679;SDS011;68213;40.528;44.712;2023-03-01T03:53:30;23.30;;;12.57;;
62679;SDS011;68213;40.528;44.712;2023-03-01T03:54:31;23.60;;;11.80;;
62679;SDS011;68213;40.528;44.712;2023-03-01T03:55:32;23.67;;;10.85;;
62679;SDS011;68213;40.528;44.712;2023-03-01T03:56:33;22.13;;;11.63;;
62679;SDS011;68213;40.528;44.712;2023-03-01T03:57:35;27.23;;;10.38;;
62679;SDS011;68213;40.528;44.712;2023-03-01T03:58:39;22.33;;;9.73;;
62679;SDS011;68213;40.528;44.712;2023-03-01T03:59:40;23.88;;;10.13;;
62679;SDS011;68213;40.528;44.712;2023-03-01T04:00:42;18.02;;;9.65;;
62679;SDS011;68213;40.528;44.712;2023-03-01T04:01:44;24.00;;;10.13;;
62679;SDS011;68213;40.528;44.712;2023-03-01T04:03:52;26.58;;;10.00;;
62679;SDS011;68213;40.528;44.712;2023-03-01T04:04:54;28.67;;;10.73;;
62679;SDS011;68213;40.528;44.712;2023-03-01T04:05:56;23.90;;;11.05;;
62679;SDS011;68213;40.528;44.712;2023-03-01T04:06:58;27.70;;;10.15;;
62679;SDS011;68213;40.528;44.712;2023-03-01T04:07:59;30.67;;;12.32;;
62679;SDS011;68213;40.528;44.712;2023-03-01T04:09:03;26.98;;;12.93;;
62679;SDS011;68213;40.528;44.712;2023-03-01T04:10:04;25.25;;;13.60;;
62679;SDS011;68213;40.528;44.712;2023-03-01T04:11:07;22.35;;;12.45;;
62679;SDS011;68213;40.528;44.712;2023-03-01T04:12:26;22.05;;;11.38;;
62679;SDS011;68213;40.528;44.712;2023-03-01T04:13:26;25.55;;;10.88;;
62679;SDS011;68213;40.528;44.712;2023-03-01T04:14:27;23.92;;;11.70;;
62679;SDS011;68213;40.528;44.712;2023-03-01T04:15:28;20.80;;;11.63;;
62679;SDS011;68213;40.528;44.712;2023-03-01T04:16:28;25.52;;;12.60;;
62679;SDS011;68213;40.528;44.712;2023-03-01T04:17:32;25.88;;;13.00;;
62679;SDS011;68213;40.528;44.712;2023-03-01T04:18:32;26.35;;;12.43;;
62679;SDS011;68213;40.528;44.712;2023-03-01T04:19:33;24.77;;;11.13;;
62679;SDS011;68213;40.528;44.712;2023-03-01T04:20:36;22.83;;;11.88;;
62679;SDS011;68213;40.528;44.712;2023-03-01T04:21:39;29.35;;;13.77;;
62679;SDS011;68213;40.528;44.712;2023-03-01T04:22:39;27.45;;;12.60;;
62679;SDS011;68213;40.528;44.712;2023-03-01T04:23:40;30.08;;;14.80;;
62679;SDS011;68213;40.528;44.712;2023-03-01T04:24:42;29.15;;;14.15;;
62679;SDS011;68213;40.528;44.712;2023-03-01T04:25:47;31.92;;;13.98;;
62679;SDS011;68213;40.528;44.712;2023-03-01T04:26:55;32.42;;;13.57;;
62679;SDS011;68213;40.528;44.712;2023-03-01T04:27:56;27.40;;;13.55;;
62679;SDS011;68213;40.528;44.712;2023-03-01T04:28:57;25.17;;;12.85;;
62679;SDS011;68213;40.528;44.712;2023-03-01T04:29:57;24.23;;;12.48;;
62679;SDS011;68213;40.528;44.712;2023-03-01T04:30:58;27.00;;;12.80;;
62679;SDS011;68213;40.528;44.712;2023-03-01T04:32:12;23.65;;;12.57;;
62679;SDS011;68213;40.528;44.712;2023-03-01T04:33:19;27.98;;;13.27;;
62679;SDS011;68213;40.528;44.712;2023-03-01T04:34:20;22.73;;;12.05;;
62679;SDS011;68213;40.528;44.712;2023-03-01T04:35:21;25.05;;;12.88;;
62679;SDS011;68213;40.528;44.712;2023-03-01T04:36:23;27.90;;;13.65;;
62679;SDS011;68213;40.528;44.712;2023-03-01T04:37:25;24.77;;;12.02;;
62679;SDS011;68213;40.528;44.712;2023-03-01T04:38:26;23.05;;;12.15;;
62679;SDS011;68213;40.528;44.712;2023-03-01T04:39:27;33.33;;;13.60;;
62679;SDS011;68213;40.528;44.712;2023-03-01T04:40:28;26.63;;;13.20;;
62679;SDS011;68213;40.528;44.712;2023-03-01T04:41:29;25.65;;;13.30;;
62679;SDS011;68213;40.528;44.712;2023-03-01T04:42:29;26.67;;;13.00;;
62679;SDS011;68213;40.528;44.712;2023-03-01T04:43:30;27.20;;;13.88;;
62679;SDS011;68213;40.528;44.712;2023-03-01T04:44:31;29.63;;;13.75;;
62679;SDS011;68213;40.528;44.712;2023-03-01T04:45:32;31.85;;;13.38;;
62679;SDS011;68213;40.528;44.712;2023-03-01T04:46:36;25.55;;;13.02;;
62679;SDS011;68213;40.528;44.712;2023-03-01T04:47:37;22.80;;;12.25;;
62679;SDS011;68213;40.528;44.712;2023-03-01T04:48:40;26.13;;;13.18;;
62679;SDS011;68213;40.528;44.712;2023-03-01T04:49:42;28.65;;;13.48;;
62679;SDS011;68213;40.528;44.712;2023-03-01T04:50:43;22.65;;;12.02;;
62679;SDS011;68213;40.528;44.712;2023-03-01T04:51:43;24.73;;;12.07;;
62679;SDS011;68213;40.528;44.712;2023-03-01T04:52:44;30.55;;;13.57;;
62679;SDS011;68213;40.528;44.712;2023-03-01T04:53:45;31.10;;;13.25;;
62679;SDS011;68213;40.528;44.712;2023-03-01T04:54:45;25.02;;;12.15;;
62679;SDS011;68213;40.528;44.712;2023-03-01T04:55:48;23.88;;;12.77;;
62679;SDS011;68213;40.528;44.712;2023-03-01T04:56:49;29.80;;;12.50;;
62679;SDS011;68213;40.528;44.712;2023-03-01T04:57:49;30.23;;;12.75;;
62679;SDS011;68213;40.528;44.712;2023-03-01T04:58:52;26.50;;;12.02;;
62679;SDS011;68213;40.528;44.712;2023-03-01T04:59:53;26.70;;;12.95;;
62679;SDS011;68213;40.528;44.712;2023-03-01T05:00:54;25.35;;;13.00;;
62679;SDS011;68213;40.528;44.712;2023-03-01T05:01:55;30.27;;;12.90;;
62679;SDS011;68213;40.528;44.712;2023-03-01T05:02:57;27.05;;;12.55;;
62679;SDS011;68213;40.528;44.712;2023-03-01T05:04:00;24.95;;;11.70;;
62679;SDS011;68213;40.528;44.712;2023-03-01T05:05:03;30.70;;;13.00;;
62679;SDS011;68213;40.528;44.712;2023-03-01T05:06:05;34.03;;;12.18;;
62679;SDS011;68213;40.528;44.712;2023-03-01T05:07:06;30.50;;;12.55;;
62679;SDS011;68213;40.528;44.712;2023-03-01T05:08:07;28.63;;;12.95;;
62679;SDS011;68213;40.528;44.712;2023-03-01T05:09:08;28.52;;;13.48;;
62679;SDS011;68213;40.528;44.712;2023-03-01T05:10:09;24.60;;;12.27;;
62679;SDS011;68213;40.528;44.712;2023-03-01T05:11:12;21.90;;;11.23;;
62679;SDS011;68213;40.528;44.712;2023-03-01T05:12:13;27.42;;;12.30;;
62679;SDS011;68213;40.528;44.712;2023-03-01T05:13:14;29.60;;;12.82;;
62679;SDS011;68213;40.528;44.712;2023-03-01T05:14:23;28.77;;;12.35;;
62679;SDS011;68213;40.528;44.712;2023-03-01T05:15:24;29.88;;;14.13;;
62679;SDS011;68213;40.528;44.712;2023-03-01T05:16:29;28.10;;;13.68;;
62679;SDS011;68213;40.528;44.712;2023-03-01T05:17:30;27.77;;;13.57;;
62679;SDS011;68213;40.528;44.712;2023-03-01T05:18:32;28.30;;;13.88;;
62679;SDS011;68213;40.528;44.712;2023-03-01T05:19:33;32.25;;;14.23;;
62679;SDS011;68213;40.528;44.712;2023-03-01T05:20:34;27.75;;;13.75;;
62679;SDS011;68213;40.528;44.712;2023-03-01T05:21:39;28.35;;;14.45;;
62679;SDS011;68213;40.528;44.712;2023-03-01T05:23:00;29.83;;;13.48;;
62679;SDS011;68213;40.528;44.712;2023-03-01T05:24:05;29.80;;;14.50;;
62679;SDS011;68213;40.528;44.712;2023-03-01T05:25:13;28.33;;;14.73;;
62679;SDS011;68213;40.528;44.712;2023-03-01T05:26:16;33.58;;;14.45;;
62679;SDS011;68213;40.528;44.712;2023-03-01T05:27:18;33.75;;;15.32;;
62679;SDS011;68213;40.528;44.712;2023-03-01T05:28:22;34.88;;;15.45;;
62679;SDS011;68213;40.528;44.712;2023-03-01T05:29:23;26.13;;;13.85;;
62679;SDS011;68213;40.528;44.712;2023-03-01T05:30:25;28.95;;;15.07;;
62679;SDS011;68213;40.528;44.712;2023-03-01T05:31:27;31.15;;;14.88;;
62679;SDS011;68213;40.528;44.712;2023-03-01T05:32:28;27.52;;;14.20;;
62679;SDS011;68213;40.528;44.712;2023-03-01T05:33:32;30.00;;;14.98;;
62679;SDS011;68213;40.528;44.712;2023-03-01T05:34:33;30.80;;;15.05;;
62679;SDS011;68213;40.528;44.712;2023-03-01T05:35:36;35.08;;;14.77;;
62679;SDS011;68213;40.528;44.712;2023-03-01T05:36:38;37.80;;;19.23;;
62679;SDS011;68213;40.528;44.712;2023-03-01T05:37:43;29.77;;;14.45;;
62679;SDS011;68213;40.528;44.712;2023-03-01T05:38:44;27.08;;;15.05;;
62679;SDS011;68213;40.528;44.712;2023-03-01T05:39:45;28.98;;;14.60;;
62679;SDS011;68213;40.528;44.712;2023-03-01T05:40:46;28.88;;;15.23;;
62679;SDS011;68213;40.528;44.712;2023-03-01T05:41:56;30.27;;;15.23;;
62679;SDS011;68213;40.528;44.712;2023-03-01T05:42:58;31.33;;;15.15;;
62679;SDS011;68213;40.528;44.712;2023-03-01T05:43:58;59.60;;;15.45;;
62679;SDS011;68213;40.528;44.712;2023-03-01T05:44:59;40.88;;;14.07;;
62679;SDS011;68213;40.528;44.712;2023-03-01T05:46:00;36.15;;;14.55;;
62679;SDS011;68213;40.528;44.712;2023-03-01T05:47:01;32.45;;;14.23;;
62679;SDS011;68213;40.528;44.712;2023-03-01T05:48:01;28.52;;;14.60;;
62679;SDS011;68213;40.528;44.712;2023-03-01T05:49:02;29.80;;;13.70;;
62679;SDS011;68213;40.528;44.712;2023-03-01T05:50:04;29.50;;;14.63;;
62679;SDS011;68213;40.528;44.712;2023-03-01T05:51:07;29.50;;;13.80;;
62679;SDS011;68213;40.528;44.712;2023-03-01T05:52:12;27.50;;;15.20;;
62679;SDS011;68213;40.528;44.712;2023-03-01T05:53:13;29.52;;;15.18;;
62679;SDS011;68213;40.528;44.712;2023-03-01T05:54:21;24.85;;;14.48;;
62679;SDS011;68213;40.528;44.712;2023-03-01T05:55:22;28.40;;;15.00;;
62679;SDS011;68213;40.528;44.712;2023-03-01T05:56:22;30.13;;;14.88;;
62679;SDS011;68213;40.528;44.712;2023-03-01T05:57:23;23.88;;;13.27;;
62679;SDS011;68213;40.528;44.712;2023-03-01T05:58:24;26.15;;;14.15;;
62679;SDS011;68213;40.528;44.712;2023-03-01T05:59:24;29.42;;;15.30;;
62679;SDS011;68213;40.528;44.712;2023-03-01T06:00:25;26.15;;;13.68;;
62679;SDS011;68213;40.528;44.712;2023-03-01T06:01:27;27.15;;;13.32;;
62679;SDS011;68213;40.528;44.712;2023-03-01T06:02:27;30.67;;;14.98;;
62679;SDS011;68213;40.528;44.712;2023-03-01T06:03:29;30.25;;;14.43;;
62679;SDS011;68213;40.528;44.712;2023-03-01T06:04:29;27.58;;;14.93;;
62679;SDS011;68213;40.528;44.712;2023-03-01T06:05:30;31.02;;;15.57;;
62679;SDS011;68213;40.528;44.712;2023-03-01T06:06:35;29.75;;;15.23;;
62679;SDS011;68213;40.528;44.712;2023-03-01T06:07:40;31.80;;;15.65;;
62679;SDS011;68213;40.528;44.712;2023-03-01T06:08:41;28.48;;;16.25;;
62679;SDS011;68213;40.528;44.712;2023-03-01T06:09:42;28.25;;;15.50;;
62679;SDS011;68213;40.528;44.712;2023-03-01T06:10:42;31.67;;;15.63;;
62679;SDS011;68213;40.528;44.712;2023-03-01T06:11:43;32.80;;;15.43;;
62679;SDS011;68213;40.528;44.712;2023-03-01T06:12:44;25.83;;;15.27;;
62679;SDS011;68213;40.528;44.712;2023-03-01T06:13:45;28.55;;;15.60;;
62679;SDS011;68213;40.528;44.712;2023-03-01T06:14:46;33.53;;;15.52;;
62679;SDS011;68213;40.528;44.712;2023-03-01T06:15:50;28.67;;;15.23;;
62679;SDS011;68213;40.528;44.712;2023-03-01T06:16:51;27.52;;;15.13;;
62679;SDS011;68213;40.528;44.712;2023-03-01T06:17:53;34.30;;;15.07;;